Aniara — SKJC — position and weather

sailwx.info

Track history (hours):
 
Tides and Currents Weather Stations Pressure Air Temp Water Temp Dewpoint Dewpoint Depression Visibility Wind Speed Wind Dir Waves Ship Positions

Aniara

Last reported at 2014-Sep-19 23:33 UTC. Time now 2014-Sep-19 23:58 UTC.
Position N 51°30' E 002°43'.

Length 232 m; draft 9.2 m.

Type: Cargo ship. MMSI: 266282000.

Date/timePositionNaut miles runAvg speedWind from/ knotsBaromVisibWave heightAir tempDewpointWater temp
2014-Sep-19 23:33N 51°30' E 002°43'1211.8
2014-Sep-19 22:33N 51°42' E 002°41'3014.0
2014-Sep-19 20:26N 52°09' E 002°59'1516.2
2014-Sep-19 19:29N 52°22' E 003°13'1716.6
2014-Sep-19 18:29N 52°36' E 003°28'2016.9
2014-Sep-19 17:19N 52°51' E 003°50'1317.2
2014-Sep-19 16:33N 52°59' E 004°06'1716.9
2014-Sep-19 15:33N 53°11' E 004°26'1716.3
2014-Sep-19 14:31N 53°27' E 004°35'1616.5
2014-Sep-19 13:33N 53°42' E 004°45'1716.9
2014-Sep-19 12:33N 53°56' E 005°01'1716.5
2014-Sep-19 11:33N 54°11' E 005°10'1717.3
2014-Sep-19 10:33N 54°26' E 005°25'1717.2
2014-Sep-19 09:33N 54°42' E 005°40'1717.0
2014-Sep-19 08:33N 54°56' E 005°54'1716.9
2014-Sep-19 07:33N 55°11' E 006°09'7117.0
2014-Sep-19 03:23N 56°13' E 007°10'1416.8
2014-Sep-19 02:32N 56°25' E 007°22'13416.4
2014-Sep-18 18:22N 57°51' E 010°32'1417.6
2014-Sep-18 17:33N 57°47' E 010°57'1717.4
2014-Sep-18 16:33N 57°39' E 011°26'1211.6
2014-Sep-18 15:34N 57°40' E 011°47'3 2.8
2014-Sep-18 14:32N 57°41' E 011°52'0 0.0
2014-Sep-18 13:32N 57°41' E 011°52'0 0.0
2014-Sep-18 12:32N 57°41' E 011°52'0 0.0
2014-Sep-18 11:32N 57°41' E 011°52'0 0.0
2014-Sep-18 10:32N 57°41' E 011°52'0 0.0
2014-Sep-18 09:32N 57°41' E 011°52'0 0.0
2014-Sep-18 08:32N 57°41' E 011°52'0 0.0
2014-Sep-18 07:32N 57°41' E 011°52'0 0.0
2014-Sep-18 06:32N 57°41' E 011°52'0 0.0
2014-Sep-18 05:32N 57°41' E 011°52'0 0.0
2014-Sep-18 04:32N 57°41' E 011°52'0 0.0
2014-Sep-18 03:32N 57°41' E 011°52'0 0.0
2014-Sep-18 02:32N 57°41' E 011°52'0 0.0
2014-Sep-18 01:32N 57°41' E 011°52'0 0.0
2014-Sep-18 00:29N 57°41' E 011°52'0 0.0
2014-Sep-17 23:32N 57°41' E 011°52'0 0.0
2014-Sep-17 22:32N 57°41' E 011°52'0 0.0
2014-Sep-17 21:32N 57°41' E 011°52'0 0.0
2014-Sep-17 20:32N 57°41' E 011°52'0 0.0
2014-Sep-17 19:32N 57°41' E 011°52'0 0.0
2014-Sep-17 18:32N 57°41' E 011°52'0 0.0
2014-Sep-17 17:32N 57°41' E 011°52'0 0.2
2014-Sep-17 16:33N 57°41' E 011°52'1010.3
2014-Sep-17 15:33N 57°37' E 011°35'5 5.1
2014-Sep-17 14:33N 57°38' E 011°26'9 9.3
2014-Sep-17 13:33N 57°42' E 011°10'1010.1
2014-Sep-17 12:33N 57°46' E 010°53'2210.8
2014-Sep-17 10:33N 57°50' E 010°13'2713.5
2014-Sep-17 08:33N 57°40' E 009°25'1514.7
2014-Sep-17 07:33N 57°31' E 009°04'1514.9
2014-Sep-17 06:33N 57°21' E 008°43'1514.7
2014-Sep-17 05:33N 57°11' E 008°23'2914.6
2014-Sep-17 03:33N 56°48' E 007°52'1515.1
2014-Sep-17 02:33N 56°33' E 007°43'1515.1
2014-Sep-17 01:33N 56°19' E 007°35'2015.0
2014-Sep-17 00:15N 56°00' E 007°25'1115.1
2014-Sep-16 23:33N 55°50' E 007°20'1515.2
2014-Sep-16 22:33N 55°36' E 007°12'3014.8
2014-Sep-16 20:32N 55°06' E 007°04'2315.9
2014-Sep-16 19:04N 54°43' E 007°14'816.0
2014-Sep-16 18:33N 54°35' E 007°17'1615.8
2014-Sep-16 17:33N 54°20' E 007°24'1515.4
2014-Sep-16 16:33N 54°06' E 007°34'1312.8
2014-Sep-16 15:31N 53°54' E 007°44'1414.6
2014-Sep-16 14:33N 53°49' E 008°07'1514.7
2014-Sep-16 13:33N 53°39' E 008°24'7 7.0
2014-Sep-16 12:33N 53°34' E 008°33'0 0.4
2014-Sep-16 11:33N 53°35' E 008°33'0 0.0
2014-Sep-16 10:32N 53°35' E 008°33'0 0.0
2014-Sep-16 09:32N 53°35' E 008°33'0 0.0
2014-Sep-16 08:32N 53°35' E 008°33'0 0.0
2014-Sep-16 07:32N 53°35' E 008°33'0 0.0
2014-Sep-16 06:32N 53°35' E 008°33'0 0.0
2014-Sep-16 05:32N 53°35' E 008°33'0 0.0
2014-Sep-16 04:32N 53°35' E 008°33'0 0.0
2014-Sep-16 03:29N 53°35' E 008°33'0 0.0
2014-Sep-16 02:32N 53°35' E 008°33'0 0.0
2014-Sep-16 01:32N 53°35' E 008°33'0 0.0
2014-Sep-16 00:32N 53°35' E 008°33'0 0.0
2014-Sep-15 23:32N 53°35' E 008°33'0 0.0
2014-Sep-15 22:32N 53°35' E 008°33'0 0.0
2014-Sep-15 21:32N 53°35' E 008°33'0 0.0
2014-Sep-15 20:32N 53°35' E 008°33'0 0.0
2014-Sep-15 19:32N 53°35' E 008°33'0 0.0
2014-Sep-15 18:32N 53°35' E 008°33'0 0.0
2014-Sep-15 17:32N 53°35' E 008°33'0 0.0
2014-Sep-15 16:32N 53°35' E 008°33'0 0.0
2014-Sep-15 15:32N 53°35' E 008°33'0 0.0
2014-Sep-15 14:32N 53°35' E 008°33'0 0.0
2014-Sep-15 13:32N 53°35' E 008°33'0 0.0
2014-Sep-15 12:32N 53°35' E 008°33'0 0.0
2014-Sep-15 11:32N 53°35' E 008°33'0 0.0
2014-Sep-15 10:32N 53°35' E 008°33'0 0.0
2014-Sep-15 09:32N 53°35' E 008°33'0 0.0
2014-Sep-15 08:32N 53°35' E 008°33'0 0.0
2014-Sep-15 07:32N 53°35' E 008°33'0 0.0
2014-Sep-15 06:32N 53°35' E 008°33'0 0.0
2014-Sep-15 05:32N 53°35' E 008°33'0 0.0
2014-Sep-15 04:32N 53°35' E 008°33'0 0.0
2014-Sep-15 03:32N 53°35' E 008°33'0 0.0
2014-Sep-15 02:32N 53°35' E 008°33'0 0.0
2014-Sep-15 01:32N 53°35' E 008°33'0 0.0
2014-Sep-15 00:32N 53°35' E 008°33'0 0.0
2014-Sep-14 23:32N 53°35' E 008°33'0 0.0
2014-Sep-14 22:32N 53°35' E 008°33'0 0.0
2014-Sep-14 21:32N 53°35' E 008°33'0 0.0
2014-Sep-14 20:32N 53°35' E 008°33'0 0.0
2014-Sep-14 19:32N 53°35' E 008°33'0 0.0
2014-Sep-14 18:32N 53°35' E 008°33'0 0.0
2014-Sep-14 17:32N 53°35' E 008°33'0 0.0
2014-Sep-14 16:32N 53°35' E 008°33'0 0.0
2014-Sep-14 15:32N 53°35' E 008°33'0 0.0
2014-Sep-14 14:32N 53°35' E 008°33'0 0.1
2014-Sep-14 13:33N 53°35' E 008°33'1 0.7
2014-Sep-14 12:34N 53°34' E 008°33'9 9.3
2014-Sep-14 11:33N 53°41' E 008°22'1818.1
2014-Sep-14 10:33N 53°51' E 007°57'1110.8
2014-Sep-14 09:33N 53°55' E 007°40'1212.4
2014-Sep-14 08:33N 54°06' E 007°30'5 4.9
2014-Sep-14 07:33N 54°03' E 007°37'5 4.8
2014-Sep-14 06:33N 54°06' E 007°30'9 9.1
2014-Sep-14 05:33N 54°14' E 007°24'1111.3
2014-Sep-14 04:33N 54°25' E 007°17'1111.0
2014-Sep-14 03:33N 54°35' E 007°10'7911.3
2014-Sep-13 20:33N 55°54' E 007°20'1111.5
2014-Sep-13 19:33N 56°05' E 007°26'14810.4
2014-Sep-13 05:22N 57°49' E 010°40'910.9
2014-Sep-13 04:33N 57°45' E 010°54'1212.0
2014-Sep-13 03:33N 57°36' E 011°10'1211.7
2014-Sep-13 02:33N 57°28' E 011°26'1211.6
2014-Sep-13 01:33N 57°17' E 011°33'1211.9
2014-Sep-13 00:32N 57°06' E 011°41'1312.0
2014-Sep-12 23:25N 56°53' E 011°50'1011.7
2014-Sep-12 22:32N 56°43' E 011°56'1212.0
2014-Sep-12 21:33N 56°32' E 012°00'1211.8
2014-Sep-12 20:34N 56°20' E 012°05'1111.0
2014-Sep-12 19:33N 56°13' E 012°19'1211.6
2014-Sep-12 18:33N 56°06' E 012°36'1313.4
2014-Sep-12 17:33N 55°53' E 012°44'1615.8
2014-Sep-12 16:34N 55°39' E 012°57'2 2.2
2014-Sep-12 15:33N 55°37' E 012°60'0 0.0
2014-Sep-12 14:33N 55°37' E 012°60'0 0.0
2014-Sep-12 13:33N 55°37' E 012°60'0 0.0
2014-Sep-12 12:33N 55°37' E 012°60'0 0.0
2014-Sep-12 11:33N 55°37' E 012°60'0 0.0
2014-Sep-12 10:33N 55°37' E 012°60'0 0.0
2014-Sep-12 09:24N 55°37' E 012°60'0 0.0
2014-Sep-12 08:27N 55°37' E 012°60'0 0.0
2014-Sep-12 07:33N 55°37' E 012°60'0 0.0
2014-Sep-12 06:33N 55°37' E 012°60'0 0.0
2014-Sep-12 05:30N 55°37' E 012°60'0 0.0
2014-Sep-12 04:30N 55°37' E 012°60'0 0.0
2014-Sep-12 03:33N 55°37' E 012°60'0 0.0
2014-Sep-12 02:27N 55°37' E 012°60'0 0.0
2014-Sep-12 01:33N 55°37' E 012°60'0 0.0
2014-Sep-12 00:33N 55°37' E 012°60'0 0.0
2014-Sep-11 23:33N 55°37' E 012°60'0 0.0
2014-Sep-11 22:27N 55°37' E 012°60'0 0.0
2014-Sep-11 21:33N 55°37' E 012°60'0 0.0
2014-Sep-11 20:33N 55°37' E 012°60'0 0.0
2014-Sep-11 19:33N 55°37' E 012°60'0 0.0
2014-Sep-11 18:33N 55°37' E 012°60'0 0.0
2014-Sep-11 17:33N 55°37' E 012°60'0 0.0
2014-Sep-11 16:33N 55°37' E 012°60'0 0.0
2014-Sep-11 15:33N 55°37' E 012°60'0 0.0
2014-Sep-11 14:33N 55°37' E 012°60'0 0.0
2014-Sep-11 13:33N 55°37' E 012°60'0 0.0
2014-Sep-11 12:33N 55°37' E 012°60'0 0.0
2014-Sep-11 11:33N 55°37' E 012°60'0 0.0
2014-Sep-11 10:30N 55°37' E 012°60'0 0.0
2014-Sep-11 09:33N 55°37' E 012°60'0 0.0
2014-Sep-11 08:33N 55°37' E 012°60'0 0.0
2014-Sep-11 07:33N 55°37' E 012°60'0 0.0
2014-Sep-11 06:33N 55°37' E 012°60'0 0.0
2014-Sep-11 05:30N 55°37' E 012°60'2 2.2
2014-Sep-11 04:33N 55°39' E 012°57'1413.8
2014-Sep-11 03:34N 55°51' E 012°45'1615.8
2014-Sep-11 02:34N 56°05' E 012°34'1918.9
2014-Sep-11 01:34N 56°16' E 012°07'1918.7
2014-Sep-11 00:33N 56°34' E 011°56'1919.2
2014-Sep-10 23:34N 56°53' E 011°47'1918.7
2014-Sep-10 22:34N 57°10' E 011°36'1919.2
2014-Sep-10 21:33N 57°28' E 011°22'1818.4
2014-Sep-10 20:34N 57°41' E 010°58'1818.2
2014-Sep-10 19:33N 57°49' E 010°26'29118.2
2014-Sep-10 03:33N 53°57' E 005°12'1717.4
2014-Sep-10 02:33N 53°42' E 004°56'1817.7
2014-Sep-10 01:34N 53°26' E 004°42'2017.7
2014-Sep-10 00:25N 53°08' E 004°29'  
Track history (hours):
 
Tides and Currents Weather Stations Pressure Air Temp Water Temp Dewpoint Dewpoint Depression Visibility Wind Speed Wind Dir Waves Ship Positions

Aniara

Last reported at 2014-Sep-19 23:33 UTC. Time now 2014-Sep-19 23:58 UTC.
Position N 51°30' E 002°43'.

Length 232 m; draft 9.2 m.

Type: Cargo ship. MMSI: 266282000.

Date/timePositionNaut miles runAvg speedWind from/ knotsBaromVisibWave heightAir tempDewpointWater temp
2014-Sep-19 23:33N 51°30' E 002°43'1211.8
2014-Sep-19 22:33N 51°42' E 002°41'3014.0
2014-Sep-19 20:26N 52°09' E 002°59'1516.2
2014-Sep-19 19:29N 52°22' E 003°13'1716.6
2014-Sep-19 18:29N 52°36' E 003°28'2016.9
2014-Sep-19 17:19N 52°51' E 003°50'1317.2
2014-Sep-19 16:33N 52°59' E 004°06'1716.9
2014-Sep-19 15:33N 53°11' E 004°26'1716.3
2014-Sep-19 14:31N 53°27' E 004°35'1616.5
2014-Sep-19 13:33N 53°42' E 004°45'1716.9
2014-Sep-19 12:33N 53°56' E 005°01'1716.5
2014-Sep-19 11:33N 54°11' E 005°10'1717.3
2014-Sep-19 10:33N 54°26' E 005°25'1717.2
2014-Sep-19 09:33N 54°42' E 005°40'1717.0
2014-Sep-19 08:33N 54°56' E 005°54'1716.9
2014-Sep-19 07:33N 55°11' E 006°09'7117.0
2014-Sep-19 03:23N 56°13' E 007°10'1416.8
2014-Sep-19 02:32N 56°25' E 007°22'13416.4
2014-Sep-18 18:22N 57°51' E 010°32'1417.6
2014-Sep-18 17:33N 57°47' E 010°57'1717.4
2014-Sep-18 16:33N 57°39' E 011°26'1211.6
2014-Sep-18 15:34N 57°40' E 011°47'3 2.8
2014-Sep-18 14:32N 57°41' E 011°52'0 0.0
2014-Sep-18 13:32N 57°41' E 011°52'0 0.0
2014-Sep-18 12:32N 57°41' E 011°52'0 0.0
2014-Sep-18 11:32N 57°41' E 011°52'0 0.0
2014-Sep-18 10:32N 57°41' E 011°52'0 0.0
2014-Sep-18 09:32N 57°41' E 011°52'0 0.0
2014-Sep-18 08:32N 57°41' E 011°52'0 0.0
2014-Sep-18 07:32N 57°41' E 011°52'0 0.0
2014-Sep-18 06:32N 57°41' E 011°52'0 0.0
2014-Sep-18 05:32N 57°41' E 011°52'0 0.0
2014-Sep-18 04:32N 57°41' E 011°52'0 0.0
2014-Sep-18 03:32N 57°41' E 011°52'0 0.0
2014-Sep-18 02:32N 57°41' E 011°52'0 0.0
2014-Sep-18 01:32N 57°41' E 011°52'0 0.0
2014-Sep-18 00:29N 57°41' E 011°52'0 0.0
2014-Sep-17 23:32N 57°41' E 011°52'0 0.0
2014-Sep-17 22:32N 57°41' E 011°52'0 0.0
2014-Sep-17 21:32N 57°41' E 011°52'0 0.0
2014-Sep-17 20:32N 57°41' E 011°52'0 0.0
2014-Sep-17 19:32N 57°41' E 011°52'0 0.0
2014-Sep-17 18:32N 57°41' E 011°52'0 0.0
2014-Sep-17 17:32N 57°41' E 011°52'0 0.2
2014-Sep-17 16:33N 57°41' E 011°52'1010.3
2014-Sep-17 15:33N 57°37' E 011°35'5 5.1
2014-Sep-17 14:33N 57°38' E 011°26'9 9.3
2014-Sep-17 13:33N 57°42' E 011°10'1010.1
2014-Sep-17 12:33N 57°46' E 010°53'2210.8
2014-Sep-17 10:33N 57°50' E 010°13'2713.5
2014-Sep-17 08:33N 57°40' E 009°25'1514.7
2014-Sep-17 07:33N 57°31' E 009°04'1514.9
2014-Sep-17 06:33N 57°21' E 008°43'1514.7
2014-Sep-17 05:33N 57°11' E 008°23'2914.6
2014-Sep-17 03:33N 56°48' E 007°52'1515.1
2014-Sep-17 02:33N 56°33' E 007°43'1515.1
2014-Sep-17 01:33N 56°19' E 007°35'2015.0
2014-Sep-17 00:15N 56°00' E 007°25'1115.1
2014-Sep-16 23:33N 55°50' E 007°20'1515.2
2014-Sep-16 22:33N 55°36' E 007°12'3014.8
2014-Sep-16 20:32N 55°06' E 007°04'2315.9
2014-Sep-16 19:04N 54°43' E 007°14'816.0
2014-Sep-16 18:33N 54°35' E 007°17'1615.8
2014-Sep-16 17:33N 54°20' E 007°24'1515.4
2014-Sep-16 16:33N 54°06' E 007°34'1312.8
2014-Sep-16 15:31N 53°54' E 007°44'1414.6
2014-Sep-16 14:33N 53°49' E 008°07'1514.7
2014-Sep-16 13:33N 53°39' E 008°24'7 7.0
2014-Sep-16 12:33N 53°34' E 008°33'0 0.4
2014-Sep-16 11:33N 53°35' E 008°33'0 0.0
2014-Sep-16 10:32N 53°35' E 008°33'0 0.0
2014-Sep-16 09:32N 53°35' E 008°33'0 0.0
2014-Sep-16 08:32N 53°35' E 008°33'0 0.0
2014-Sep-16 07:32N 53°35' E 008°33'0 0.0
2014-Sep-16 06:32N 53°35' E 008°33'0 0.0
2014-Sep-16 05:32N 53°35' E 008°33'0 0.0
2014-Sep-16 04:32N 53°35' E 008°33'0 0.0
2014-Sep-16 03:29N 53°35' E 008°33'0 0.0
2014-Sep-16 02:32N 53°35' E 008°33'0 0.0
2014-Sep-16 01:32N 53°35' E 008°33'0 0.0
2014-Sep-16 00:32N 53°35' E 008°33'0 0.0
2014-Sep-15 23:32N 53°35' E 008°33'0 0.0
2014-Sep-15 22:32N 53°35' E 008°33'0 0.0
2014-Sep-15 21:32N 53°35' E 008°33'0 0.0
2014-Sep-15 20:32N 53°35' E 008°33'0 0.0
2014-Sep-15 19:32N 53°35' E 008°33'0 0.0
2014-Sep-15 18:32N 53°35' E 008°33'0 0.0
2014-Sep-15 17:32N 53°35' E 008°33'0 0.0
2014-Sep-15 16:32N 53°35' E 008°33'0 0.0
2014-Sep-15 15:32N 53°35' E 008°33'0 0.0
2014-Sep-15 14:32N 53°35' E 008°33'0 0.0
2014-Sep-15 13:32N 53°35' E 008°33'0 0.0
2014-Sep-15 12:32N 53°35' E 008°33'0 0.0
2014-Sep-15 11:32N 53°35' E 008°33'0 0.0
2014-Sep-15 10:32N 53°35' E 008°33'0 0.0
2014-Sep-15 09:32N 53°35' E 008°33'0 0.0
2014-Sep-15 08:32N 53°35' E 008°33'0 0.0
2014-Sep-15 07:32N 53°35' E 008°33'0 0.0
2014-Sep-15 06:32N 53°35' E 008°33'0 0.0
2014-Sep-15 05:32N 53°35' E 008°33'0 0.0
2014-Sep-15 04:32N 53°35' E 008°33'0 0.0
2014-Sep-15 03:32N 53°35' E 008°33'0 0.0
2014-Sep-15 02:32N 53°35' E 008°33'0 0.0
2014-Sep-15 01:32N 53°35' E 008°33'0 0.0
2014-Sep-15 00:32N 53°35' E 008°33'0 0.0
2014-Sep-14 23:32N 53°35' E 008°33'0 0.0
2014-Sep-14 22:32N 53°35' E 008°33'0 0.0
2014-Sep-14 21:32N 53°35' E 008°33'0 0.0
2014-Sep-14 20:32N 53°35' E 008°33'0 0.0
2014-Sep-14 19:32N 53°35' E 008°33'0 0.0
2014-Sep-14 18:32N 53°35' E 008°33'0 0.0
2014-Sep-14 17:32N 53°35' E 008°33'0 0.0
2014-Sep-14 16:32N 53°35' E 008°33'0 0.0
2014-Sep-14 15:32N 53°35' E 008°33'0 0.0
2014-Sep-14 14:32N 53°35' E 008°33'0 0.1
2014-Sep-14 13:33N 53°35' E 008°33'1 0.7
2014-Sep-14 12:34N 53°34' E 008°33'9 9.3
2014-Sep-14 11:33N 53°41' E 008°22'1818.1
2014-Sep-14 10:33N 53°51' E 007°57'1110.8
2014-Sep-14 09:33N 53°55' E 007°40'1212.4
2014-Sep-14 08:33N 54°06' E 007°30'5 4.9
2014-Sep-14 07:33N 54°03' E 007°37'5 4.8
2014-Sep-14 06:33N 54°06' E 007°30'9 9.1
2014-Sep-14 05:33N 54°14' E 007°24'1111.3
2014-Sep-14 04:33N 54°25' E 007°17'1111.0
2014-Sep-14 03:33N 54°35' E 007°10'7911.3
2014-Sep-13 20:33N 55°54' E 007°20'1111.5
2014-Sep-13 19:33N 56°05' E 007°26'14810.4
2014-Sep-13 05:22N 57°49' E 010°40'910.9
2014-Sep-13 04:33N 57°45' E 010°54'1212.0
2014-Sep-13 03:33N 57°36' E 011°10'1211.7
2014-Sep-13 02:33N 57°28' E 011°26'1211.6
2014-Sep-13 01:33N 57°17' E 011°33'1211.9
2014-Sep-13 00:32N 57°06' E 011°41'1312.0
2014-Sep-12 23:25N 56°53' E 011°50'1011.7
2014-Sep-12 22:32N 56°43' E 011°56'1212.0
2014-Sep-12 21:33N 56°32' E 012°00'1211.8
2014-Sep-12 20:34N 56°20' E 012°05'1111.0
2014-Sep-12 19:33N 56°13' E 012°19'1211.6
2014-Sep-12 18:33N 56°06' E 012°36'1313.4
2014-Sep-12 17:33N 55°53' E 012°44'1615.8
2014-Sep-12 16:34N 55°39' E 012°57'2 2.2
2014-Sep-12 15:33N 55°37' E 012°60'0 0.0
2014-Sep-12 14:33N 55°37' E 012°60'0 0.0
2014-Sep-12 13:33N 55°37' E 012°60'0 0.0
2014-Sep-12 12:33N 55°37' E 012°60'0 0.0
2014-Sep-12 11:33N 55°37' E 012°60'0 0.0
2014-Sep-12 10:33N 55°37' E 012°60'0 0.0
2014-Sep-12 09:24N 55°37' E 012°60'0 0.0
2014-Sep-12 08:27N 55°37' E 012°60'0 0.0
2014-Sep-12 07:33N 55°37' E 012°60'0 0.0
2014-Sep-12 06:33N 55°37' E 012°60'0 0.0
2014-Sep-12 05:30N 55°37' E 012°60'0 0.0
2014-Sep-12 04:30N 55°37' E 012°60'0 0.0
2014-Sep-12 03:33N 55°37' E 012°60'0 0.0
2014-Sep-12 02:27N 55°37' E 012°60'0 0.0
2014-Sep-12 01:33N 55°37' E 012°60'0 0.0
2014-Sep-12 00:33N 55°37' E 012°60'0 0.0
2014-Sep-11 23:33N 55°37' E 012°60'0 0.0
2014-Sep-11 22:27N 55°37' E 012°60'0 0.0
2014-Sep-11 21:33N 55°37' E 012°60'0 0.0
2014-Sep-11 20:33N 55°37' E 012°60'0 0.0
2014-Sep-11 19:33N 55°37' E 012°60'0 0.0
2014-Sep-11 18:33N 55°37' E 012°60'0 0.0
2014-Sep-11 17:33N 55°37' E 012°60'0 0.0
2014-Sep-11 16:33N 55°37' E 012°60'0 0.0
2014-Sep-11 15:33N 55°37' E 012°60'0 0.0
2014-Sep-11 14:33N 55°37' E 012°60'0 0.0
2014-Sep-11 13:33N 55°37' E 012°60'0 0.0
2014-Sep-11 12:33N 55°37' E 012°60'0 0.0
2014-Sep-11 11:33N 55°37' E 012°60'0 0.0
2014-Sep-11 10:30N 55°37' E 012°60'0 0.0
2014-Sep-11 09:33N 55°37' E 012°60'0 0.0
2014-Sep-11 08:33N 55°37' E 012°60'0 0.0
2014-Sep-11 07:33N 55°37' E 012°60'0 0.0
2014-Sep-11 06:33N 55°37' E 012°60'0 0.0
2014-Sep-11 05:30N 55°37' E 012°60'2 2.2
2014-Sep-11 04:33N 55°39' E 012°57'1413.8
2014-Sep-11 03:34N 55°51' E 012°45'1615.8
2014-Sep-11 02:34N 56°05' E 012°34'1918.9
2014-Sep-11 01:34N 56°16' E 012°07'1918.7
2014-Sep-11 00:33N 56°34' E 011°56'1919.2
2014-Sep-10 23:34N 56°53' E 011°47'1918.7
2014-Sep-10 22:34N 57°10' E 011°36'1919.2
2014-Sep-10 21:33N 57°28' E 011°22'1818.4
2014-Sep-10 20:34N 57°41' E 010°58'1818.2
2014-Sep-10 19:33N 57°49' E 010°26'29118.2
2014-Sep-10 03:33N 53°57' E 005°12'1717.4
2014-Sep-10 02:33N 53°42' E 004°56'1817.7
2014-Sep-10 01:34N 53°26' E 004°42'2017.7
2014-Sep-10 00:25N 53°08' E 004°29'  

Dump ship's entire track history